Time;durP1;ratioP1;P1;durP2;ratioP2;P2;SDS_P1;SDS_P2;PMS_P1;PMS_P2;Temp;Humidity;BMP_temperature;BMP_pressure;BME280_temperature;BME280_humidity;BME280_pressure;Samples;Min_cycle;Max_cycle;Signal;HPM_P1;HPM_P2
2023/07/05 00:00:19;;;;;;;3.27;2.10;;;;;;;17.86;100.00;96113.16;4950661;28;101855;-61
2023/07/05 00:02:51;;;;;;;6.63;1.90;;;;;;;18.07;100.00;96117.00;4950782;28;102528;-60
2023/07/05 00:05:18;;;;;;;3.23;1.70;;;;;;;18.19;100.00;96121.81;4948206;28;105359;-61
2023/07/05 00:07:44;;;;;;;1.93;1.83;;;;;;;17.85;100.00;96108.06;4949331;28;101948;-61
2023/07/05 00:10:12;;;;;;;5.03;2.03;;;;;;;18.17;100.00;96108.69;4950651;28;103025;-61
2023/07/05 00:12:39;;;;;;;2.13;1.60;;;;;;;18.37;100.00;96100.13;4952100;28;105873;-61
2023/07/05 00:15:09;;;;;;;1.70;1.60;;;;;;;18.45;100.00;96098.63;4948648;28;105224;-61
2023/07/05 00:17:35;;;;;;;4.07;1.90;;;;;;;18.51;100.00;96083.91;4948590;28;105814;-61
2023/07/05 00:20:04;;;;;;;3.00;1.60;;;;;;;18.68;100.00;96089.41;4949053;28;102027;-61
2023/07/05 00:22:31;;;;;;;2.83;2.10;;;;;;;18.70;100.00;96092.63;4950574;28;102874;-61
2023/07/05 00:24:58;;;;;;;2.70;2.00;;;;;;;18.57;100.00;96080.00;4949568;28;103457;-61
2023/07/05 00:27:26;;;;;;;4.40;2.10;;;;;;;18.64;100.00;96077.69;4948891;28;101928;-61
2023/07/05 00:29:54;;;;;;;2.23;1.80;;;;;;;18.63;100.00;96079.56;4949142;28;105637;-61
2023/07/05 00:32:23;;;;;;;4.20;2.00;;;;;;;18.66;100.00;96072.78;4948170;28;105829;-61
2023/07/05 00:34:50;;;;;;;3.50;2.13;;;;;;;18.38;100.00;96065.94;4955975;28;101835;-59
2023/07/05 00:37:17;;;;;;;2.83;1.97;;;;;;;18.07;100.00;96073.13;4952673;28;102550;-59
2023/07/05 00:39:44;;;;;;;5.10;2.03;;;;;;;18.25;100.00;96070.25;4953018;28;102076;-59
2023/07/05 00:42:11;;;;;;;2.53;1.90;;;;;;;18.31;100.00;96077.09;4952229;28;105178;-59
2023/07/05 00:44:38;;;;;;;2.60;2.10;;;;;;;18.49;100.00;96062.72;4951376;28;105740;-60
2023/07/05 00:47:09;;;;;;;3.30;1.93;;;;;;;18.50;100.00;96061.59;4951832;28;101924;-59
2023/07/05 00:49:38;;;;;;;2.73;1.73;;;;;;;18.51;100.00;96065.06;4953862;28;102510;-60
2023/07/05 00:52:10;;;;;;;3.53;2.07;;;;;;;18.41;100.00;96058.06;4951402;28;105374;-59
2023/07/05 00:54:44;;;;;;;2.27;1.93;;;;;;;18.33;100.00;96056.13;4955037;28;101841;-59
2023/07/05 00:57:17;;;;;;;2.07;1.60;;;;;;;18.42;100.00;96056.16;4951373;28;105364;-59
2023/07/05 00:59:49;;;;;;;3.03;1.87;;;;;;;18.30;100.00;96048.59;4951909;28;101999;-59
2023/07/05 01:02:16;;;;;;;3.50;1.80;;;;;;;18.12;100.00;96049.59;4951875;28;105517;-59
2023/07/05 01:04:45;;;;;;;3.83;1.80;;;;;;;18.21;100.00;96045.06;4950987;28;105491;-59
2023/07/05 01:07:12;;;;;;;2.13;2.00;;;;;;;17.96;100.00;96040.28;4951735;28;102070;-59
2023/07/05 01:09:39;;;;;;;4.30;1.90;;;;;;;17.78;100.00;96035.06;4951803;28;105800;-59
2023/07/05 01:12:18;;;;;;;4.13;1.83;;;;;;;17.40;100.00;96037.25;4951283;28;105647;-59
2023/07/05 01:14:54;;;;;;;2.97;2.10;;;;;;;17.98;100.00;96040.78;4951596;28;102083;-59
2023/07/05 01:17:33;;;;;;;2.57;1.67;;;;;;;17.96;100.00;96036.78;4954570;28;105942;-60
2023/07/05 01:20:18;;;;;;;2.53;1.93;;;;;;;17.84;100.00;96033.84;4951646;28;103420;-60
2023/07/05 01:23:19;;;;;;;2.27;1.80;;;;;;;17.91;100.00;96036.91;4951440;28;104908;-60
2023/07/05 01:26:18;;;;;;;3.33;2.20;;;;;;;17.73;100.00;96035.19;4917866;28;105394;-61
2023/07/05 01:28:59;;;;;;;3.17;1.93;;;;;;;17.46;100.00;96035.25;4920076;28;101925;-61
2023/07/05 01:32:00;;;;;;;1.77;1.67;;;;;;;16.97;100.00;96043.22;4951341;28;105761;-61
2023/07/05 01:34:38;;;;;;;4.33;2.00;;;;;;;17.04;100.00;96055.16;4950594;28;104549;-60
2023/07/05 01:37:06;;;;;;;6.10;2.23;;;;;;;17.40;100.00;96047.22;4951327;28;102191;-60
2023/07/05 01:39:33;;;;;;;4.07;1.97;;;;;;;17.69;100.00;96045.75;4952408;28;102348;-60
2023/07/05 01:42:04;;;;;;;4.20;2.10;;;;;;;17.70;100.00;96041.97;4955414;28;102591;-60
2023/07/05 01:44:32;;;;;;;3.20;1.83;;;;;;;17.82;100.00;96044.13;4950582;28;105805;-60
2023/07/05 01:47:09;;;;;;;3.03;1.83;;;;;;;17.59;100.00;96039.78;4949864;28;105909;-60
2023/07/05 01:49:52;;;;;;;3.47;2.10;;;;;;;17.81;100.00;96035.25;4951353;28;101805;-60
2023/07/05 01:52:28;;;;;;;4.67;2.00;;;;;;;17.62;100.00;96028.44;4951212;28;105696;-60
2023/07/05 01:55:05;;;;;;;2.40;2.00;;;;;;;17.75;100.00;96031.09;4951626;28;102720;-60
2023/07/05 01:57:37;;;;;;;6.10;2.70;;;;;;;17.76;100.00;96037.28;4950971;28;101804;-60
2023/07/05 02:00:08;;;;;;;3.17;1.87;;;;;;;17.55;100.00;96033.44;4950789;28;105339;-60
2023/07/05 02:02:42;;;;;;;2.37;1.73;;;;;;;17.37;100.00;96031.63;4949056;28;102383;-60
2023/07/05 02:05:11;;;;;;;1.53;1.43;;;;;;;17.67;100.00;96033.72;4954508;28;101902;-60
2023/07/05 02:07:38;;;;;;;2.57;1.67;;;;;;;17.44;100.00;96029.38;4948633;28;105623;-60
2023/07/05 02:10:07;;;;;;;3.00;2.20;;;;;;;17.27;100.00;96032.66;4948806;28;102339;-61
2023/07/05 02:12:34;;;;;;;3.17;1.90;;;;;;;16.53;100.00;96038.41;4950862;28;105208;-61
2023/07/05 02:15:01;;;;;;;4.50;2.00;;;;;;;16.42;100.00;96039.69;4950015;28;104344;-61
2023/07/05 02:17:29;;;;;;;1.87;1.77;;;;;;;16.47;100.00;96041.47;4950715;28;101894;-61
2023/07/05 02:19:57;;;;;;;2.17;1.50;;;;;;;16.87;100.00;96043.41;4950296;28;105427;-61
2023/07/05 02:22:24;;;;;;;2.13;1.70;;;;;;;16.94;100.00;96035.78;4942771;28;105884;-61
2023/07/05 02:24:51;;;;;;;4.17;1.70;;;;;;;17.03;100.00;96042.84;4950740;28;101908;-60
2023/07/05 02:27:19;;;;;;;3.07;1.90;;;;;;;17.10;100.00;96039.72;4953386;28;105708;-60
2023/07/05 02:29:46;;;;;;;5.40;2.00;;;;;;;17.38;100.00;96031.38;4952082;28;101815;-60
2023/07/05 02:32:13;;;;;;;2.43;1.90;;;;;;;17.50;100.00;96033.56;4950522;28;104244;-60
2023/07/05 02:34:42;;;;;;;1.60;1.50;;;;;;;17.38;100.00;96028.69;4950131;28;104722;-60
2023/07/05 02:37:11;;;;;;;2.20;1.63;;;;;;;17.14;100.00;96021.91;4950595;28;102017;-60
2023/07/05 02:39:38;;;;;;;2.00;1.80;;;;;;;17.56;100.00;96029.66;4950102;28;105411;-60
2023/07/05 02:42:05;;;;;;;2.37;1.93;;;;;;;17.37;100.00;96023.56;4949522;28;105613;-60
2023/07/05 02:44:32;;;;;;;3.00;1.90;;;;;;;17.13;100.00;96009.59;4950496;28;102003;-61
2023/07/05 02:46:59;;;;;;;2.73;2.03;;;;;;;17.20;100.00;96023.41;4950496;28;105078;-61
2023/07/05 02:49:26;;;;;;;3.17;1.67;;;;;;;17.20;100.00;96010.78;4952901;28;105450;-60
2023/07/05 02:51:53;;;;;;;1.90;1.80;;;;;;;17.02;100.00;96018.94;4950121;28;105160;-60
2023/07/05 02:54:21;;;;;;;3.17;2.07;;;;;;;16.91;100.00;96025.63;4949590;28;105339;-60
2023/07/05 02:56:48;;;;;;;2.03;1.60;;;;;;;16.84;100.00;96025.22;4949892;28;101932;-60
2023/07/05 02:59:16;;;;;;;2.33;1.90;;;;;;;16.79;100.00;96023.41;4950370;28;104862;-58
2023/07/05 03:01:43;;;;;;;1.87;1.60;;;;;;;16.83;100.00;96026.28;4949216;28;105048;-58
2023/07/05 03:04:10;;;;;;;2.43;1.87;;;;;;;16.86;100.00;96021.16;4950128;28;102105;-56
2023/07/05 03:06:37;;;;;;;2.43;2.23;;;;;;;16.64;100.00;96039.81;4950245;28;105795;-59
2023/07/05 03:09:05;;;;;;;1.90;1.80;;;;;;;16.59;100.00;96034.56;4952314;28;105157;-59
2023/07/05 03:11:33;;;;;;;2.20;2.00;;;;;;;16.54;100.00;96039.19;4950133;28;104915;-60
2023/07/05 03:14:00;;;;;;;4.40;2.27;;;;;;;16.92;100.00;96040.63;4948969;28;105656;-60
2023/07/05 03:16:27;;;;;;;2.10;1.90;;;;;;;16.85;100.00;96041.03;4951063;28;102144;-60
2023/07/05 03:18:54;;;;;;;2.20;1.97;;;;;;;16.69;100.00;96041.63;4949803;28;105423;-60
2023/07/05 03:21:21;;;;;;;2.20;2.00;;;;;;;16.68;100.00;96051.56;4949215;28;105434;-60
2023/07/05 03:23:47;;;;;;;3.47;2.00;;;;;;;16.62;100.00;96051.97;4949570;28;102156;-60
2023/07/05 03:26:17;;;;;;;1.93;1.83;;;;;;;16.45;100.00;96046.34;4949823;28;105471;-60
2023/07/05 03:28:45;;;;;;;3.53;1.80;;;;;;;16.56;100.00;96058.50;4949007;28;105384;-60
2023/07/05 03:31:15;;;;;;;2.40;1.90;;;;;;;16.57;100.00;96054.72;4953341;28;102323;-60
2023/07/05 03:33:42;;;;;;;3.13;1.90;;;;;;;16.58;100.00;96067.84;4948425;28;105140;-60
2023/07/05 03:36:13;;;;;;;2.13;2.03;;;;;;;16.62;100.00;96065.38;4948616;28;102054;-60
2023/07/05 03:38:41;;;;;;;1.90;1.80;;;;;;;16.57;100.00;96063.56;4949083;28;105069;-60
2023/07/05 03:41:11;;;;;;;2.90;2.00;;;;;;;16.66;100.00;96074.41;4949033;28;103792;-60
2023/07/05 03:43:39;;;;;;;2.23;2.03;;;;;;;16.58;100.00;96072.44;4949264;28;101815;-60
2023/07/05 03:46:08;;;;;;;1.93;1.77;;;;;;;16.56;100.00;96072.72;4949457;28;105675;-60
2023/07/05 03:48:37;;;;;;;3.83;1.90;;;;;;;16.57;100.00;96073.53;4950250;28;102569;-60
2023/07/05 03:51:04;;;;;;;1.90;1.80;;;;;;;16.54;100.00;96076.78;4949520;28;101953;-60
2023/07/05 03:53:33;;;;;;;2.27;1.83;;;;;;;16.61;100.00;96071.81;4953377;28;103031;-62
2023/07/05 03:56:02;;;;;;;1.93;1.70;;;;;;;16.60;100.00;96070.22;4949412;28;101767;-60
2023/07/05 03:58:30;;;;;;;3.73;2.20;;;;;;;16.68;100.00;96077.63;4949146;28;105762;-60
2023/07/05 04:01:04;;;;;;;4.67;2.17;;;;;;;16.78;100.00;96074.75;4950241;28;101989;-60
2023/07/05 04:03:33;;;;;;;1.80;1.70;;;;;;;16.88;100.00;96077.22;4950224;28;101929;-60
2023/07/05 04:06:01;;;;;;;3.03;1.90;;;;;;;17.43;100.00;96081.56;4950517;28;103036;-60
2023/07/05 04:08:28;;;;;;;3.87;2.23;;;;;;;17.67;100.00;96079.44;4948947;28;105477;-61
2023/07/05 04:10:55;;;;;;;8.60;2.07;;;;;;;18.03;100.00;96082.94;4954099;28;102120;-61
2023/07/05 04:13:22;;;;;;;5.10;1.87;;;;;;;18.08;100.00;96069.31;4953720;28;102614;-60
2023/07/05 04:15:58;;;;;;;5.20;2.60;;;;;;;18.05;100.00;96068.03;4956650;28;103121;-60
2023/07/05 04:18:25;;;;;;;10.20;2.93;;;;;;;18.26;100.00;96054.91;4954215;28;102533;-60
2023/07/05 04:20:53;;;;;;;6.33;2.50;;;;;;;18.47;100.00;96058.72;4951821;28;105503;-60
2023/07/05 04:23:20;;;;;;;5.20;2.37;;;;;;;18.47;100.00;96056.03;4952458;28;102055;-60
2023/07/05 04:25:47;;;;;;;3.27;2.17;;;;;;;18.45;100.00;96059.03;4951841;28;105756;-60
2023/07/05 04:28:14;;;;;;;3.80;2.57;;;;;;;18.43;100.00;96052.38;4951581;28;105100;-60
2023/07/05 04:30:41;;;;;;;4.57;2.47;;;;;;;18.42;100.00;96058.84;4953623;28;102188;-60
2023/07/05 04:33:08;;;;;;;3.87;2.30;;;;;;;18.44;100.00;96062.84;4951494;28;105204;-60
2023/07/05 04:35:35;;;;;;;3.77;2.17;;;;;;;18.49;100.00;96051.94;4952019;28;102640;-60
2023/07/05 04:38:03;;;;;;;4.07;2.07;;;;;;;18.45;100.00;96058.22;4954992;28;102049;-60
2023/07/05 04:40:30;;;;;;;5.87;2.50;;;;;;;18.57;100.00;96064.66;4952013;28;102627;-60
2023/07/05 04:42:57;;;;;;;5.83;2.40;;;;;;;18.58;100.00;96062.75;4952748;28;101860;-60
2023/07/05 04:45:24;;;;;;;2.37;2.10;;;;;;;18.74;100.00;96061.25;4951376;28;104181;-60
2023/07/05 04:47:50;;;;;;;2.60;2.27;;;;;;;18.69;100.00;96064.88;4952106;28;102599;-60
2023/07/05 04:50:17;;;;;;;4.20;2.40;;;;;;;18.80;100.00;96066.19;4952760;28;102175;-60
2023/07/05 04:52:44;;;;;;;5.27;2.20;;;;;;;18.92;100.00;96073.72;4951410;28;105214;-60
2023/07/05 04:55:13;;;;;;;3.63;2.60;;;;;;;18.92;100.00;96068.31;4952055;28;102622;-61
2023/07/05 04:57:42;;;;;;;5.07;2.40;;;;;;;18.86;100.00;96064.16;4952521;28;102242;-60
2023/07/05 05:00:10;;;;;;;4.13;2.03;;;;;;;18.98;100.00;96064.38;4953868;28;104456;-60
2023/07/05 05:02:37;;;;;;;4.50;2.13;;;;;;;19.06;100.00;96069.00;4952480;28;101846;-61
2023/07/05 05:05:05;;;;;;;2.97;2.13;;;;;;;19.44;100.00;96075.50;4951005;28;105659;-60
2023/07/05 05:07:32;;;;;;;4.63;2.33;;;;;;;19.55;100.00;96076.81;4952014;28;102919;-60
2023/07/05 05:10:00;;;;;;;4.70;2.37;;;;;;;19.87;100.00;96070.97;4952532;28;101869;-60
2023/07/05 05:12:28;;;;;;;6.43;2.40;;;;;;;20.10;100.00;96072.47;4950996;28;105414;-60
2023/07/05 05:14:55;;;;;;;4.93;2.50;;;;;;;20.11;100.00;96065.97;4950365;28;105579;-60
2023/07/05 05:17:22;;;;;;;3.37;2.30;;;;;;;20.41;100.00;96073.06;4952513;28;102022;-60
2023/07/05 05:19:49;;;;;;;2.73;1.90;;;;;;;20.55;100.00;96076.41;4953454;28;105052;-60
2023/07/05 05:22:16;;;;;;;4.13;2.10;;;;;;;20.76;100.00;96080.03;4950843;28;101935;-60
2023/07/05 05:24:42;;;;;;;2.50;2.17;;;;;;;20.48;100.00;96078.81;4950766;28;105604;-60
2023/07/05 05:27:09;;;;;;;2.67;1.83;;;;;;;19.62;100.00;96079.84;4950241;28;105502;-60
2023/07/05 05:29:38;;;;;;;5.50;1.70;;;;;;;20.06;100.00;96082.28;4950622;28;102054;-60
2023/07/05 05:32:05;;;;;;;5.57;1.80;;;;;;;20.48;100.00;96086.91;4952025;28;102939;-60
2023/07/05 05:34:32;;;;;;;3.23;1.70;;;;;;;19.80;100.00;96078.75;4950058;28;105097;-60
2023/07/05 05:36:59;;;;;;;1.97;1.77;;;;;;;20.13;100.00;96088.03;4950485;28;102106;-60
2023/07/05 05:39:26;;;;;;;2.53;1.80;;;;;;;20.45;100.00;96090.25;4951455;28;102357;-60
2023/07/05 05:41:53;;;;;;;2.20;2.00;;;;;;;20.29;100.00;96095.34;4953292;28;105192;-60
2023/07/05 05:44:19;;;;;;;3.57;2.03;;;;;;;20.18;100.00;96085.97;4950605;28;105285;-60
2023/07/05 05:46:48;;;;;;;3.20;1.63;;;;;;;20.48;100.00;96089.63;4949972;28;104173;-60
2023/07/05 05:49:15;;;;;;;4.03;1.67;;;;;;;20.86;100.00;96085.88;4951731;28;101994;-60
2023/07/05 05:51:42;;;;;;;2.20;1.70;;;;;;;21.50;100.00;96094.72;4950287;28;105019;-60
2023/07/05 05:54:09;;;;;;;1.73;1.40;;;;;;;21.35;100.00;96082.53;4949869;28;104028;-60
2023/07/05 05:56:35;;;;;;;2.40;1.50;;;;;;;21.02;100.00;96088.88;4950541;28;102112;-60
2023/07/05 05:59:02;;;;;;;1.60;1.50;;;;;;;20.83;100.00;96080.31;4950344;28;105273;-60
2023/07/05 06:01:29;;;;;;;2.67;1.57;;;;;;;20.95;100.00;96073.16;4949563;28;105347;-60
2023/07/05 06:03:57;;;;;;;2.43;1.40;;;;;;;20.88;100.00;96077.44;4954983;28;101726;-60
2023/07/05 06:06:24;;;;;;;1.40;1.13;;;;;;;20.86;100.00;96074.25;4949570;28;105433;-60
2023/07/05 06:08:51;;;;;;;1.47;1.37;;;;;;;20.61;100.00;96075.91;4950179;28;101942;-60
2023/07/05 06:11:18;;;;;;;1.50;1.40;;;;;;;20.41;100.00;96075.78;4950152;28;105308;-60
2023/07/05 06:13:45;;;;;;;2.70;1.70;;;;;;;20.39;100.00;96086.88;4949387;28;105780;-60
2023/07/05 06:16:12;;;;;;;1.70;1.60;;;;;;;20.19;100.00;96084.06;4950107;28;101889;-60
2023/07/05 06:18:39;;;;;;;3.50;1.60;;;;;;;20.41;100.00;96094.69;4950068;28;104119;-60
2023/07/05 06:21:07;;;;;;;4.20;1.60;;;;;;;20.82;100.00;96097.66;4949190;28;105233;-60
2023/07/05 06:23:34;;;;;;;1.30;1.23;;;;;;;20.40;100.00;96093.91;4950018;28;101967;-60
2023/07/05 06:26:00;;;;;;;3.80;1.80;;;;;;;20.70;100.00;96098.31;4952632;28;105354;-60
2023/07/05 06:28:27;;;;;;;2.20;1.53;;;;;;;20.90;100.00;96123.88;4949900;28;102141;-60
2023/07/05 06:30:54;;;;;;;1.50;1.40;;;;;;;20.27;100.00;96197.47;4949323;28;105158;-60
2023/07/05 06:33:21;;;;;;;2.97;1.90;;;;;;;19.58;100.00;96232.63;4948859;28;105531;-60
2023/07/05 06:35:49;;;;;;;2.60;1.43;;;;;;;19.59;100.00;96154.09;4949746;28;102255;-60
2023/07/05 06:38:18;;;;;;;1.40;1.30;;;;;;;19.27;100.00;96192.19;4949455;28;104876;-60
2023/07/05 06:40:51;;;;;;;1.50;1.40;;;;;;;19.27;100.00;96210.25;4949265;28;105687;-60
2023/07/05 06:43:18;;;;;;;1.43;1.33;;;;;;;19.27;100.00;96183.31;4949596;28;101877;-60
2023/07/05 06:45:48;;;;;;;1.40;1.30;;;;;;;19.76;100.00;96183.03;4949668;28;103989;-60
2023/07/05 06:48:14;;;;;;;1.53;1.43;;;;;;;20.11;100.00;96182.06;4952209;28;105882;-60
2023/07/05 06:50:41;;;;;;;2.30;1.40;;;;;;;20.64;100.00;96196.06;4951092;28;102683;-59
2023/07/05 06:53:08;;;;;;;1.53;1.43;;;;;;;21.04;100.00;96192.09;4948880;28;105334;-59
2023/07/05 06:55:39;;;;;;;1.30;1.20;;;;;;;21.40;100.00;96203.28;4949532;28;102197;-59
2023/07/05 06:58:07;;;;;;;1.37;1.27;;;;;;;21.05;100.00;96190.97;4949356;28;105370;-59
2023/07/05 07:00:34;;;;;;;1.30;1.20;;;;;;;21.14;100.00;96189.06;4948727;28;105473;-59
2023/07/05 07:03:01;;;;;;;1.53;1.43;;;;;;;20.95;100.00;96183.19;4949220;28;102377;-59
2023/07/05 07:05:30;;;;;;;2.30;1.30;;;;;;;20.92;100.00;96192.72;4949443;28;105291;-59
2023/07/05 07:07:57;;;;;;;1.30;1.20;;;;;;;20.90;100.00;96183.34;4948821;28;104987;-59
2023/07/05 07:10:24;;;;;;;1.27;1.20;;;;;;;20.75;100.00;96187.31;4952495;28;101993;-59
2023/07/05 07:12:52;;;;;;;1.40;1.30;;;;;;;21.12;100.00;96192.06;4950072;28;102646;-59
2023/07/05 07:15:19;;;;;;;2.10;1.23;;;;;;;21.47;100.00;96193.56;4949110;28;102239;-59
2023/07/05 07:17:47;;;;;;;1.20;1.03;;;;;;;22.12;100.00;96190.44;4950530;28;102959;-59
2023/07/05 07:20:14;;;;;;;1.87;1.40;;;;;;;22.24;100.00;96195.94;4950002;28;102506;-59
2023/07/05 07:22:41;;;;;;;2.40;1.43;;;;;;;22.02;100.00;96198.94;4949088;28;102065;-59
2023/07/05 07:25:09;;;;;;;1.90;1.20;;;;;;;22.20;100.00;96201.22;4950508;28;102553;-59
2023/07/05 07:27:35;;;;;;;3.60;1.40;;;;;;;;;;4948242;28;105633;-59
2023/07/05 07:30:04;;;;;;;1.40;1.30;;;;;;;22.45;100.00;96208.41;4953646;28;101597;-60
2023/07/05 07:32:31;;;;;;;4.00;1.80;;;;;;;22.93;100.00;96195.09;4949860;28;102653;-59
2023/07/05 07:34:58;;;;;;;1.97;1.50;;;;;;;23.18;100.00;96198.72;4950484;28;102083;-59
2023/07/05 07:37:25;;;;;;;1.40;1.30;;;;;;;22.49;100.00;96200.41;4948958;28;105179;-59
2023/07/05 07:39:52;;;;;;;2.00;1.30;;;;;;;22.77;100.00;96193.34;4949087;28;102698;-59
2023/07/05 07:42:18;;;;;;;1.40;1.30;;;;;;;22.56;100.00;96208.81;4948874;28;102005;-59
2023/07/05 07:44:45;;;;;;;2.63;1.50;;;;;;;22.96;100.00;96201.78;4952856;28;102912;-59
2023/07/05 07:47:14;;;;;;;3.20;1.30;;;;;;;23.31;100.00;96205.75;4951928;28;105320;-59
2023/07/05 07:49:41;;;;;;;3.83;1.30;;;;;;;23.23;100.00;96198.50;4953489;28;101853;-59
2023/07/05 07:52:10;;;;;;;1.30;1.20;;;;;;;23.29;100.00;96200.69;4954958;28;105115;-59
2023/07/05 07:54:38;;;;;;;1.93;1.20;;;;;;;23.52;100.00;96198.34;4953564;28;102157;-60
2023/07/05 07:57:06;;;;;;;2.30;1.40;;;;;;;23.56;100.00;96207.41;4953534;28;102422;-59
2023/07/05 07:59:35;;;;;;;1.27;1.10;;;;;;;23.19;100.00;96206.53;4952740;28;102683;-59
2023/07/05 08:02:02;;;;;;;2.37;1.43;;;;;;;23.43;100.00;96200.38;4952198;28;102093;-59
2023/07/05 08:04:31;;;;;;;1.40;1.30;;;;;;;23.39;100.00;96204.91;4952053;28;105330;-59
2023/07/05 08:06:58;;;;;;;10.27;1.40;;;;;;;22.74;100.00;96210.25;4951454;28;105727;-59
2023/07/05 08:09:27;;;;;;;2.40;1.60;;;;;;;22.59;100.00;96208.16;4951873;28;101888;-59
2023/07/05 08:11:55;;;;;;;2.27;1.63;;;;;;;22.67;100.00;96201.88;4952022;28;104375;-59
2023/07/05 08:14:22;;;;;;;1.77;1.20;;;;;;;23.36;100.00;96198.22;4956135;28;102585;-59
2023/07/05 08:16:49;;;;;;;1.97;1.20;;;;;;;23.72;100.00;96208.34;4952030;28;105333;-59
2023/07/05 08:19:17;;;;;;;3.27;1.50;;;;;;;23.64;100.00;96201.09;4952613;28;102527;-59
2023/07/05 08:21:46;;;;;;;1.80;1.30;;;;;;;24.40;100.00;96200.09;4951885;28;101924;-59
2023/07/05 08:24:13;;;;;;;1.20;1.20;;;;;;;24.43;100.00;96201.34;4951763;28;103705;-59
2023/07/05 08:26:40;;;;;;;1.67;1.50;;;;;;;24.20;100.00;96194.81;4952662;28;102611;-59
2023/07/05 08:29:08;;;;;;;4.07;1.67;;;;;;;23.64;100.00;96190.25;4951782;28;102172;-59
2023/07/05 08:31:35;;;;;;;1.87;1.40;;;;;;;23.90;100.00;96185.28;4953053;28;102938;-59
2023/07/05 08:34:02;;;;;;;1.53;1.10;;;;;;;24.66;100.00;96188.84;4950927;28;105847;-59
2023/07/05 08:36:34;;;;;;;1.10;1.03;;;;;;;24.71;100.00;96180.44;4956408;28;101943;-59
2023/07/05 08:39:05;;;;;;;2.33;1.27;;;;;;;24.34;100.00;96179.72;4952086;28;101842;-59
2023/07/05 08:41:45;;;;;;;1.30;1.20;;;;;;;25.07;100.00;96183.81;4951533;28;101865;-59
2023/07/05 08:44:22;;;;;;;1.90;1.60;;;;;;;24.34;100.00;96187.06;4953047;28;102575;-59
2023/07/05 08:46:57;;;;;;;2.37;1.40;;;;;;;24.38;100.00;96182.53;4952317;28;102634;-59
2023/07/05 08:49:28;;;;;;;2.07;1.40;;;;;;;24.70;100.00;96176.16;4953187;28;101796;-59
2023/07/05 08:51:56;;;;;;;1.50;1.40;;;;;;;24.84;100.00;96171.13;4951366;28;105413;-59
2023/07/05 08:54:31;;;;;;;1.43;1.33;;;;;;;24.71;100.00;96172.28;4951732;28;102849;-59
2023/07/05 08:57:04;;;;;;;1.90;1.50;;;;;;;24.84;100.00;96168.41;4951180;28;101927;-59
2023/07/05 08:59:36;;;;;;;2.37;1.50;;;;;;;24.88;100.00;96167.38;4955510;28;102688;-59
2023/07/05 09:02:04;;;;;;;2.43;1.30;;;;;;;25.45;93.67;96175.94;4952772;28;101752;-59
2023/07/05 09:04:33;;;;;;;2.20;1.80;;;;;;;26.08;100.00;96174.84;4952711;28;102344;-59
2023/07/05 09:07:09;;;;;;;1.70;1.60;;;;;;;26.20;100.00;96176.66;4951975;28;102915;-59
2023/07/05 09:09:51;;;;;;;1.53;1.40;;;;;;;26.29;94.70;96166.34;4951141;28;102096;-59
2023/07/05 09:12:25;;;;;;;1.33;1.23;;;;;;;26.69;95.59;96169.63;4952547;28;102941;-59
2023/07/05 09:15:12;;;;;;;1.30;1.20;;;;;;;26.75;88.33;96165.44;4952136;28;102612;-59
2023/07/05 09:17:49;;;;;;;1.30;1.20;;;;;;;26.32;96.36;96160.19;4950950;28;101791;-59
2023/07/05 09:20:30;;;;;;;1.80;1.37;;;;;;;26.30;100.00;96159.75;4951163;28;105166;-59
2023/07/05 09:23:00;;;;;;;1.27;1.17;;;;;;;26.16;98.34;96153.97;4953462;28;102202;-59
2023/07/05 09:25:31;;;;;;;1.60;1.50;;;;;;;26.39;100.00;96155.69;4952012;28;102412;-59
2023/07/05 09:28:22;;;;;;;1.40;1.20;;;;;;;26.79;95.42;96155.38;4951719;28;102668;-59
2023/07/05 09:30:49;;;;;;;1.83;1.30;;;;;;;27.33;83.20;96150.63;4950777;28;101998;-59
2023/07/05 09:33:21;;;;;;;1.27;1.17;;;;;;;26.83;73.06;96150.78;4952153;28;102338;-59
2023/07/05 09:35:49;;;;;;;1.63;1.53;;;;;;;27.51;86.28;96151.75;4951423;28;102560;-59
2023/07/05 09:38:24;;;;;;;1.40;1.30;;;;;;;27.91;81.02;96146.59;4951781;28;101825;-60
2023/07/05 09:41:01;;;;;;;1.40;1.30;;;;;;;27.73;75.32;96150.94;4952017;28;102383;-59
2023/07/05 09:43:30;;;;;;;2.00;1.40;;;;;;;27.24;85.09;96147.34;4954925;28;102513;-59
2023/07/05 09:46:00;;;;;;;3.47;1.50;;;;;;;27.72;84.60;96136.50;4950564;28;105268;-59
2023/07/05 09:48:30;;;;;;;2.63;1.50;;;;;;;28.10;76.61;96138.28;4951236;28;102669;-59
2023/07/05 09:51:03;;;;;;;1.40;1.15;;;;;;;28.38;69.43;96139.50;4950266;28;101947;-59
2023/07/05 09:53:42;;;;;;;2.03;1.50;;;;;;;28.69;67.36;96138.38;4951986;28;103133;-59
2023/07/05 09:56:12;;;;;;;1.20;1.10;;;;;;;28.32;59.63;96138.22;4949751;28;105392;-59
2023/07/05 09:58:40;;;;;;;1.70;1.60;;;;;;;26.99;66.13;96146.03;4951785;28;101826;-59
2023/07/05 10:01:13;;;;;;;1.80;1.50;;;;;;;25.99;67.76;96143.47;4950206;28;105163;-59
2023/07/05 10:03:49;;;;;;;1.60;1.50;;;;;;;25.70;77.49;96144.69;4951325;28;102544;-59
2023/07/05 10:06:19;;;;;;;1.33;1.30;;;;;;;25.98;81.66;96139.94;4954258;28;101887;-59
2023/07/05 10:08:50;;;;;;;1.70;1.40;;;;;;;25.91;89.62;96142.50;4949472;28;105929;-59
2023/07/05 10:11:24;;;;;;;1.50;1.40;;;;;;;26.45;73.14;96135.16;4951335;28;101832;-59
2023/07/05 10:14:13;;;;;;;1.53;1.43;;;;;;;27.07;65.35;96140.34;4950279;28;103685;-59
2023/07/05 10:16:52;;;;;;;1.77;1.40;;;;;;;27.06;60.73;96130.59;4949613;28;105843;-59
2023/07/05 10:19:29;;;;;;;2.70;1.90;;;;;;;26.43;67.91;96131.22;4951586;28;101677;-59
2023/07/05 10:22:04;;;;;;;1.70;1.60;;;;;;;25.97;72.71;96130.19;4951460;28;102364;-59
2023/07/05 10:24:33;;;;;;;1.80;1.70;;;;;;;25.73;78.45;96124.13;4950349;28;102493;-59
2023/07/05 10:27:09;;;;;;;1.93;1.60;;;;;;;25.70;79.70;96124.81;4951027;28;101868;-59
2023/07/05 10:29:37;;;;;;;2.17;1.70;;;;;;;25.26;87.20;96117.88;4952413;28;105701;-59
2023/07/05 10:32:04;;;;;;;2.10;1.50;;;;;;;25.15;91.25;96124.94;4950889;28;102282;-59
2023/07/05 10:34:32;;;;;;;3.50;1.90;;;;;;;25.03;84.51;96127.72;4951171;28;102406;-59
2023/07/05 10:37:04;;;;;;;1.93;1.83;;;;;;;25.15;90.52;96120.28;4950209;28;102742;-59
2023/07/05 10:39:31;;;;;;;1.63;1.50;;;;;;;26.21;96.60;96115.53;4949083;28;102140;-59
2023/07/05 10:42:00;;;;;;;1.90;1.60;;;;;;;26.88;77.12;96115.81;4949597;28;105676;-59
2023/07/05 10:44:32;;;;;;;1.77;1.60;;;;;;;27.34;77.58;96122.94;4950564;28;102547;-59
2023/07/05 10:47:01;;;;;;;2.13;1.90;;;;;;;27.94;82.94;96122.03;4949664;28;102115;-59
2023/07/05 10:49:30;;;;;;;1.63;1.53;;;;;;;28.50;72.62;96119.34;4949631;28;105774;-59
2023/07/05 10:52:01;;;;;;;1.70;1.60;;;;;;;28.75;59.23;96113.03;4953517;28;102673;-59
2023/07/05 10:54:42;;;;;;;2.80;1.50;;;;;;;29.26;58.53;96116.00;4950917;28;102431;-59
2023/07/05 10:57:19;;;;;;;2.47;1.73;;;;;;;27.62;53.92;96117.19;4948918;28;104101;-59
2023/07/05 10:59:53;;;;;;;1.70;1.58;;;;;;;28.88;58.19;96108.09;4950982;28;102140;-59
2023/07/05 11:02:33;;;;;;;2.95;1.42;;;;;;;29.00;55.50;96108.69;4950946;28;102898;-59
2023/07/05 11:05:01;;;;;;;1.60;1.50;;;;;;;29.22;55.69;96106.94;4950311;28;102935;-58
2023/07/05 11:07:32;;;;;;;1.83;1.73;;;;;;;26.71;64.56;96110.78;4949239;28;101936;-59
2023/07/05 11:09:59;;;;;;;1.92;1.77;;;;;;;27.04;68.49;96107.53;4950783;28;102452;-59
2023/07/05 11:12:29;;;;;;;2.15;1.85;;;;;;;26.01;68.13;96106.53;4950014;28;102861;-59
2023/07/05 11:14:59;;;;;;;1.90;1.70;;;;;;;25.39;75.70;96113.94;4954281;28;102257;-59
2023/07/05 11:17:32;;;;;;;2.80;1.87;;;;;;;25.30;77.08;96111.41;4948376;28;105456;-59
2023/07/05 11:19:59;;;;;;;2.10;1.90;;;;;;;25.43;81.84;96114.81;4950757;28;102271;-59
2023/07/05 11:22:40;;;;;;;2.33;1.60;;;;;;;26.27;88.57;96105.94;4949130;28;105377;-59
2023/07/05 11:25:12;;;;;;;2.20;2.00;;;;;;;27.00;74.28;96096.56;4948466;28;105461;-59
2023/07/05 11:27:55;;;;;;;2.13;1.60;;;;;;;27.79;60.65;96094.84;4949126;28;101829;-59
2023/07/05 11:30:41;;;;;;;2.47;1.87;;;;;;;27.57;61.57;96087.44;4950496;28;102508;-59